Flight Track Log - Related Links

Times and Time Zones

All times are in EDT time to prevent confusion due to time zone crossing. See the KAP190 flight status page for this flight to view local times or setup timezone preferences in your user account.

Time Position Orientation Groundspeed Altitude Reporting Facility
EDT Latitude Longitude Course Direction KTS MPH feet Rate Location/Type
Wed 07:41:56 AM 44.9013 -74.8213 235° Southwest  Level FlightAware Approximate
Wed 07:49:56 AM 44.5828 -74.6677 322° Northwest  Level FlightAware Approximate
Wed 07:51:19 AM 44.8383 -74.9461 155° Southeast 144 166 5,000  Level Boston Center
Wed 07:52:19 AM 44.8056 -74.9242 156° South 102 117 5,300 400 Climbing Boston Center
Wed 07:53:19 AM 44.7706 -74.9022 149° Southeast 117 135 5,800 500 Climbing Boston Center
Wed 07:54:19 AM 44.7378 -74.8744 163° South 135 155 6,300 500 Climbing Boston Center
Wed 07:55:19 AM 44.7067 -74.8614 156° South 130 150 6,800 400 Climbing Boston Center
Wed 07:56:19 AM 44.6719 -74.8397 161° South 130 150 7,100 150 Climbing Boston Center
Wed 07:57:19 AM 44.6325 -74.8206 162° South 143 165 7,100  Level Boston Center
Wed 07:58:19 AM 44.5892 -74.8011 159° South 151 174 7,100  Level Boston Center
Wed 07:59:19 AM 44.5439 -74.7761 159° South 164 189 7,100  Level Boston Center
Wed 08:00:19 AM 44.4986 -74.7511 155° Southeast 169 194 7,100  Level Boston Center
Wed 08:01:19 AM 44.4553 -74.7231 159° South 169 194 7,100  Level Boston Center
Wed 08:02:19 AM 44.4081 -74.6981 159° South 169 194 7,100  Level Boston Center
Wed 08:03:19 AM 44.3667 -74.6761 154° Southeast 169 194 7,100  Level Boston Center
Wed 08:04:19 AM 44.3214 -74.6456 161° South 169 194 7,100  Level Boston Center
Wed 08:05:19 AM 44.2761 -74.6236 158° South 169 194 7,100  Level Boston Center
Wed 08:06:19 AM 44.2328 -74.5986 158° South 169 194 7,100  Level Boston Center
Wed 08:07:19 AM 44.1894 -74.5739 159° South 169 194 7,100  Level Boston Center
Wed 08:08:19 AM 44.1442 -74.5492 157° South 169 194 7,100  Level Boston Center
Wed 08:09:19 AM 44.0986 -74.5217 157° South 169 194 7,100  Level Boston Center
Wed 08:10:19 AM 44.0514 -74.4939 160° South 174 200 7,100  Level Boston Center
Wed 08:11:19 AM 44.0017 -74.4692 159° South 174 200 7,100  Level Boston Center
Wed 08:12:19 AM 43.9564 -74.4444 160° South 174 200 7,100  Level Boston Center
Wed 08:13:19 AM 43.9089 -74.4200 156° South 174 200 7,100  Level Boston Center
Wed 08:14:19 AM 43.8633 -74.3925 159° South 179 206 7,100  Level Boston Center
Wed 08:15:19 AM 43.8181 -74.3681 159° South 179 206 7,100  Level Boston Center
Wed 08:16:19 AM 43.7706 -74.3433 159° South 179 206 7,100  Level Boston Center
Wed 08:17:19 AM 43.7250 -74.3189 158° South 179 206 7,100  Level Boston Center
Wed 08:18:19 AM 43.6756 -74.2917 159° South 184 212 7,100  Level Boston Center
Wed 08:19:19 AM 43.6300 -74.2672 160° South 184 212 7,100  Level Boston Center
Wed 08:20:19 AM 43.5825 -74.2428 159° South 189 217 7,100  Level Boston Center
Wed 08:21:19 AM 43.5369 -74.2186 159° South 189 217 7,100  Level Boston Center
Wed 08:22:19 AM 43.4914 -74.1944 166° South 189 217 7,100  Level Boston Center
Wed 08:22:41 AM 43.4728 -74.1881 151° Southeast 177 204 7,100  Level Boston Center
Wed 08:23:19 AM 43.4461 -74.1675 168° South 189 217 7,100 -91 Level Boston Center
Wed 08:23:47 AM 43.4233 -74.1611 154° Southeast 178 205 7,000  Descending Boston Center
Wed 08:24:19 AM 43.4006 -74.1461 162° South 189 217 7,100 109 Climbing Boston Center
Wed 08:24:42 AM 43.3797 -74.1369 154° Southeast 174 200 7,100  Level Boston Center
Wed 08:25:19 AM 43.3572 -74.1219 169° South 189 217 7,100 -100 Level Boston Center
Wed 08:25:42 AM 43.3342 -74.1158 154° Southeast 174 200 7,000  Descending Boston Center
Wed 08:26:19 AM 43.3075 -74.0978 164° South 184 212 7,100 90 Climbing Boston Center
Wed 08:26:49 AM 43.2847 -74.0886 157° South 173 199 7,100  Level Boston Center
Wed 08:27:19 AM 43.2639 -74.0767 169° South 184 212 7,100  Level Boston Center
Wed 08:27:50 AM 43.2392 -74.0703 153° Southeast 175 201 7,100 -100 Level Boston Center
Wed 08:28:19 AM 43.2142 -74.0525 159° South 184 212 7,000 -100 Descending Boston Center
Wed 08:28:50 AM 43.1917 -74.0406 143° Southeast 175 201 7,000  Level Boston Center
Wed 08:29:19 AM 43.1772 -74.0258 154° Southeast 179 206 7,000 -492 Level Boston Center
Wed 08:29:51 AM 43.1503 -74.0081 149° Southeast 182 209 6,500 -800 Descending Boston Center
Wed 08:30:19 AM 43.1256 -73.9875 156° South 184 212 6,200 -787 Descending Boston Center
Wed 08:30:52 AM 43.0967 -73.9697 144° Southeast 193 222 5,700 -800 Descending Boston Center
Wed 08:31:19 AM 43.0822 -73.9553 155° Southeast 195 224 5,400 -700 Descending Boston Center
Wed 08:31:52 AM 43.0492 -73.9344 150° Southeast 194 223 5,000 -600 Descending Boston Center
Wed 08:32:19 AM 43.0306 -73.9200 159° South 195 224 4,800 -590 Descending Boston Center
Wed 08:32:53 AM 43.0017 -73.9050 159° South 192 221 4,400 -600 Descending Boston Center
Wed 08:33:19 AM 42.9850 -73.8961 159° South 195 224 4,200 -900 Descending Boston Center
Wed 08:33:53 AM 42.9519 -73.8783 152° Southeast 193 222 3,500 -1,000 Descending Boston Center
Wed 08:34:19 AM 42.9314 -73.8636 132° Southeast 195 224 3,200 -787 Descending Boston Center
Wed 08:34:54 AM 42.9108 -73.8319 150° Southeast 189 217 2,700 -800 Descending Boston Center
Wed 08:35:19 AM 42.8922 -73.8172 175° South 190 219 2,400 -492 Descending Boston Center
Wed 08:35:55 AM 42.8631 -73.8139 128° Southeast 171 197 2,200 -200 Descending Boston Center
Wed 08:36:19 AM 42.8467 -73.7853 221° Southwest 184 212 2,200 -500 Level Boston Center
Wed 08:36:55 AM 42.8256 -73.8103 179° South 140 161 1,700 -804 Descending Boston Center
Wed 08:37:56 AM 42.7881 -73.8094 179° South 131 151 900 -787 Descending Boston Center

Login

Don't have an account? Register now (free) for customized features, flight alerts, and more!